Main page
METAR-TAF:

METAR-TAF

Airports :

Curaçao, Netherlands Antilles

Curaçao International Airport

latitude: 12-12N, longitude: 068-58W, elevation: 9 m

Current weather observation

The report was made 13 minutes ago, at 19:00 UTC
Wind 13 kt from the East
Temperature 29°C
Humidity 70%
Pressure 1013 hPa
Visibility 10 km or more
Scattered clouds at a height of 2300 ft

METAR: TNCC 191900Z 10013KT 9999 SCT023 29/23 Q1013 NOSIG

Time: 15:13 (19:13 UTC)

Forecast

The report was made 3 hours and 13 minutes ago, at 16:00 UTC
Forecast valid from 19 at 18 UTC to 20 at 18 UTC
Wind 13 kt from the East
Visibility 10 km or more
Scattered clouds at a height of 2000 ft

TAF: TNCC 191600Z 1918/2018 10013KT 9999 SCT020

Weather observations and forecasts of more than 4000 airports (METAR and TAF reports).

The available stations are represented by yellow and red dots on the map.

Hover mouse over dot to see the name of the station.

Then click to see weather observations and forecasts.

To change the map : click on the green buttons with a black cross to zoom in, on the green button with a dash to zoom out, or on the green arrows for adjacent maps.


METAR-TAF: